sensor_id;sensor_type;location;lat;lon;timestamp;pressure;altitude;pressure_sealevel;temperature;humidity
13604;BME280;24578;48.264;11.436;2022-11-04T00:02:02;95166.91;;;10.01;100.00
13604;BME280;24578;48.264;11.436;2022-11-04T00:05:02;95174.38;;;10.04;100.00
13604;BME280;24578;48.264;11.436;2022-11-04T00:08:03;95188.66;;;10.09;100.00
13604;BME280;24578;48.264;11.436;2022-11-04T00:11:22;95193.84;;;10.09;100.00
13604;BME280;24578;48.264;11.436;2022-11-04T00:14:41;95201.06;;;10.05;100.00
13604;BME280;24578;48.264;11.436;2022-11-04T00:17:41;95198.63;;;10.03;100.00
13604;BME280;24578;48.264;11.436;2022-11-04T00:20:41;95202.28;;;10.11;100.00
13604;BME280;24578;48.264;11.436;2022-11-04T00:24:00;95214.56;;;10.18;100.00
13604;BME280;24578;48.264;11.436;2022-11-04T00:27:20;95210.31;;;10.17;100.00
13604;BME280;24578;48.264;11.436;2022-11-04T00:30:39;95220.69;;;10.27;100.00
13604;BME280;24578;48.264;11.436;2022-11-04T00:33:39;95213.34;;;10.23;100.00
13604;BME280;24578;48.264;11.436;2022-11-04T00:36:39;95233.09;;;10.24;100.00
13604;BME280;24578;48.264;11.436;2022-11-04T00:39:39;95228.59;;;10.26;100.00
13604;BME280;24578;48.264;11.436;2022-11-04T00:42:41;95241.25;;;10.19;100.00
13604;BME280;24578;48.264;11.436;2022-11-04T00:45:41;95245.72;;;10.17;100.00
13604;BME280;24578;48.264;11.436;2022-11-04T00:48:41;95247.06;;;10.11;100.00
13604;BME280;24578;48.264;11.436;2022-11-04T00:51:41;95255.59;;;10.02;100.00
13604;BME280;24578;48.264;11.436;2022-11-04T00:54:42;95241.59;;;10.04;100.00
13604;BME280;24578;48.264;11.436;2022-11-04T00:57:42;95253.28;;;9.99;100.00
13604;BME280;24578;48.264;11.436;2022-11-04T01:00:42;95258.59;;;9.97;100.00
13604;BME280;24578;48.264;11.436;2022-11-04T01:03:46;95267.56;;;9.93;100.00
13604;BME280;24578;48.264;11.436;2022-11-04T01:06:46;95269.72;;;9.88;100.00
13604;BME280;24578;48.264;11.436;2022-11-04T01:09:47;95273.06;;;9.79;100.00
13604;BME280;24578;48.264;11.436;2022-11-04T01:12:48;95282.03;;;9.74;100.00
13604;BME280;24578;48.264;11.436;2022-11-04T01:15:50;95276.25;;;9.61;100.00
13604;BME280;24578;48.264;11.436;2022-11-04T01:18:50;95280.31;;;9.54;100.00
13604;BME280;24578;48.264;11.436;2022-11-04T01:21:51;95284.47;;;9.45;100.00
13604;BME280;24578;48.264;11.436;2022-11-04T01:24:51;95284.56;;;9.34;100.00
13604;BME280;24578;48.264;11.436;2022-11-04T01:27:52;95287.50;;;9.29;100.00
13604;BME280;24578;48.264;11.436;2022-11-04T01:30:52;95293.41;;;9.20;100.00
13604;BME280;24578;48.264;11.436;2022-11-04T01:33:52;95282.22;;;9.09;100.00
13604;BME280;24578;48.264;11.436;2022-11-04T01:36:52;95282.47;;;9.06;100.00
13604;BME280;24578;48.264;11.436;2022-11-04T01:39:53;95293.84;;;9.04;100.00
13604;BME280;24578;48.264;11.436;2022-11-04T01:42:53;95277.69;;;9.02;100.00
13604;BME280;24578;48.264;11.436;2022-11-04T01:45:55;95276.16;;;8.99;100.00
13604;BME280;24578;48.264;11.436;2022-11-04T01:49:05;95264.56;;;8.93;100.00
13604;BME280;24578;48.264;11.436;2022-11-04T01:52:09;95267.66;;;8.87;100.00
13604;BME280;24578;48.264;11.436;2022-11-04T01:55:12;95271.97;;;8.87;100.00
13604;BME280;24578;48.264;11.436;2022-11-04T01:58:14;95266.81;;;8.87;100.00
13604;BME280;24578;48.264;11.436;2022-11-04T02:01:16;95261.97;;;8.93;100.00
13604;BME280;24578;48.264;11.436;2022-11-04T02:04:16;95261.41;;;8.90;100.00
13604;BME280;24578;48.264;11.436;2022-11-04T02:07:26;95269.03;;;8.91;100.00
13604;BME280;24578;48.264;11.436;2022-11-04T02:10:28;95278.53;;;8.91;100.00
13604;BME280;24578;48.264;11.436;2022-11-04T02:13:29;95255.69;;;8.86;100.00
13604;BME280;24578;48.264;11.436;2022-11-04T02:16:42;95260.72;;;8.88;100.00
13604;BME280;24578;48.264;11.436;2022-11-04T02:32:57;95273.22;;;8.71;100.00
13604;BME280;24578;48.264;11.436;2022-11-04T02:36:09;95272.28;;;8.72;100.00
13604;BME280;24578;48.264;11.436;2022-11-04T02:42:28;95277.56;;;8.71;100.00
13604;BME280;24578;48.264;11.436;2022-11-04T02:45:40;95285.66;;;8.66;100.00
13604;BME280;24578;48.264;11.436;2022-11-04T02:48:48;95286.16;;;8.60;100.00
13604;BME280;24578;48.264;11.436;2022-11-04T02:51:56;95286.16;;;8.60;100.00
13604;BME280;24578;48.264;11.436;2022-11-04T02:55:02;95295.06;;;8.56;100.00
13604;BME280;24578;48.264;11.436;2022-11-04T02:58:04;95283.34;;;8.51;100.00
13604;BME280;24578;48.264;11.436;2022-11-04T03:01:07;95286.88;;;8.50;100.00
13604;BME280;24578;48.264;11.436;2022-11-04T03:04:14;95275.88;;;8.48;100.00
13604;BME280;24578;48.264;11.436;2022-11-04T03:07:17;95274.09;;;8.49;100.00
13604;BME280;24578;48.264;11.436;2022-11-04T03:10:26;95269.75;;;8.49;100.00
13604;BME280;24578;48.264;11.436;2022-11-04T03:13:31;95269.16;;;8.46;100.00
13604;BME280;24578;48.264;11.436;2022-11-04T03:16:36;95255.69;;;8.42;100.00
13604;BME280;24578;48.264;11.436;2022-11-04T03:19:44;95257.69;;;8.38;100.00
13604;BME280;24578;48.264;11.436;2022-11-04T03:22:48;95252.31;;;8.30;100.00
13604;BME280;24578;48.264;11.436;2022-11-04T03:25:50;95252.22;;;8.32;100.00
13604;BME280;24578;48.264;11.436;2022-11-04T03:32:06;95262.41;;;8.33;100.00
13604;BME280;24578;48.264;11.436;2022-11-04T03:35:09;95259.34;;;8.28;100.00
13604;BME280;24578;48.264;11.436;2022-11-04T03:38:11;95273.06;;;8.29;100.00
13604;BME280;24578;48.264;11.436;2022-11-04T03:41:14;95267.91;;;8.29;100.00
13604;BME280;24578;48.264;11.436;2022-11-04T03:44:16;95263.56;;;8.29;100.00
13604;BME280;24578;48.264;11.436;2022-11-04T03:47:17;95257.72;;;8.27;100.00
13604;BME280;24578;48.264;11.436;2022-11-04T03:50:19;95261.94;;;8.28;100.00
13604;BME280;24578;48.264;11.436;2022-11-04T03:53:22;95263.69;;;8.28;100.00
13604;BME280;24578;48.264;11.436;2022-11-04T03:56:44;95272.38;;;8.27;100.00
13604;BME280;24578;48.264;11.436;2022-11-04T03:59:58;95263.69;;;8.28;100.00
13604;BME280;24578;48.264;11.436;2022-11-04T04:06:37;95262.44;;;8.22;100.00
13604;BME280;24578;48.264;11.436;2022-11-04T04:09:34;95249.31;;;8.25;100.00
13604;BME280;24578;48.264;11.436;2022-11-04T04:12:37;95240.50;;;8.28;100.00
13604;BME280;24578;48.264;11.436;2022-11-04T04:15:43;95228.78;;;8.23;100.00
13604;BME280;24578;48.264;11.436;2022-11-04T04:19:19;95233.38;;;8.20;100.00
13604;BME280;24578;48.264;11.436;2022-11-04T04:22:24;95234.53;;;8.16;100.00
13604;BME280;24578;48.264;11.436;2022-11-04T04:25:27;95242.41;;;8.14;100.00
13604;BME280;24578;48.264;11.436;2022-11-04T04:28:47;95252.34;;;8.19;100.00
13604;BME280;24578;48.264;11.436;2022-11-04T04:31:49;95264.31;;;8.20;100.00
13604;BME280;24578;48.264;11.436;2022-11-04T04:34:51;95259.25;;;8.18;100.00
13604;BME280;24578;48.264;11.436;2022-11-04T04:38:13;95242.75;;;8.21;100.00
13604;BME280;24578;48.264;11.436;2022-11-04T04:41:33;95254.00;;;8.20;100.00
13604;BME280;24578;48.264;11.436;2022-11-04T04:44:52;95259.72;;;8.23;100.00
13604;BME280;24578;48.264;11.436;2022-11-04T04:47:58;95251.88;;;8.25;100.00
13604;BME280;24578;48.264;11.436;2022-11-04T04:50:59;95244.63;;;8.19;100.00
13604;BME280;24578;48.264;11.436;2022-11-04T04:54:01;95242.41;;;8.14;100.00
13604;BME280;24578;48.264;11.436;2022-11-04T04:57:01;95260.44;;;8.14;100.00
13604;BME280;24578;48.264;11.436;2022-11-04T05:00:02;95272.63;;;8.12;100.00
13604;BME280;24578;48.264;11.436;2022-11-04T05:03:03;95274.13;;;8.15;100.00
13604;BME280;24578;48.264;11.436;2022-11-04T05:06:03;95279.88;;;8.18;100.00
13604;BME280;24578;48.264;11.436;2022-11-04T05:09:03;95278.47;;;8.26;100.00
13604;BME280;24578;48.264;11.436;2022-11-04T05:12:03;95273.88;;;8.29;100.00
13604;BME280;24578;48.264;11.436;2022-11-04T05:15:04;95268.84;;;8.28;100.00
13604;BME280;24578;48.264;11.436;2022-11-04T05:18:04;95261.59;;;8.33;100.00
13604;BME280;24578;48.264;11.436;2022-11-04T05:21:05;95271.78;;;8.34;100.00
13604;BME280;24578;48.264;11.436;2022-11-04T05:24:06;95285.97;;;8.29;100.00
13604;BME280;24578;48.264;11.436;2022-11-04T05:27:06;95284.44;;;8.26;100.00
13604;BME280;24578;48.264;11.436;2022-11-04T05:30:07;95279.97;;;8.28;100.00
13604;BME280;24578;48.264;11.436;2022-11-04T05:33:07;95268.28;;;8.24;100.00
13604;BME280;24578;48.264;11.436;2022-11-04T05:36:09;95270.25;;;8.20;100.00
13604;BME280;24578;48.264;11.436;2022-11-04T05:39:10;95278.25;;;8.17;100.00
13604;BME280;24578;48.264;11.436;2022-11-04T05:42:11;95271.69;;;8.13;100.00
13604;BME280;24578;48.264;11.436;2022-11-04T05:45:11;95293.13;;;8.14;100.00
13604;BME280;24578;48.264;11.436;2022-11-04T05:48:12;95302.28;;;8.06;100.00
13604;BME280;24578;48.264;11.436;2022-11-04T05:51:16;95279.44;;;8.02;100.00
13604;BME280;24578;48.264;11.436;2022-11-04T05:54:16;95284.34;;;7.93;100.00
13604;BME280;24578;48.264;11.436;2022-11-04T05:57:16;95292.09;;;7.82;100.00
13604;BME280;24578;48.264;11.436;2022-11-04T06:00:17;95290.56;;;7.68;100.00
13604;BME280;24578;48.264;11.436;2022-11-04T06:03:17;95297.72;;;7.65;100.00
13604;BME280;24578;48.264;11.436;2022-11-04T06:06:18;95292.78;;;7.61;100.00
13604;BME280;24578;48.264;11.436;2022-11-04T06:09:19;95289.50;;;7.59;100.00
13604;BME280;24578;48.264;11.436;2022-11-04T06:12:19;95306.81;;;7.57;100.00
13604;BME280;24578;48.264;11.436;2022-11-04T06:15:19;95326.72;;;7.55;100.00
13604;BME280;24578;48.264;11.436;2022-11-04T06:18:20;95312.44;;;7.51;100.00
13604;BME280;24578;48.264;11.436;2022-11-04T06:21:27;95307.03;;;7.43;100.00
13604;BME280;24578;48.264;11.436;2022-11-04T06:24:27;95309.59;;;7.31;100.00
13604;BME280;24578;48.264;11.436;2022-11-04T06:27:28;95317.31;;;7.43;100.00
13604;BME280;24578;48.264;11.436;2022-11-04T06:30:28;95325.88;;;7.43;100.00
13604;BME280;24578;48.264;11.436;2022-11-04T06:33:28;95321.88;;;7.39;100.00
13604;BME280;24578;48.264;11.436;2022-11-04T06:36:29;95306.78;;;7.35;100.00
13604;BME280;24578;48.264;11.436;2022-11-04T06:39:29;95309.47;;;7.33;100.00
13604;BME280;24578;48.264;11.436;2022-11-04T06:42:29;95316.59;;;7.29;100.00
13604;BME280;24578;48.264;11.436;2022-11-04T06:45:29;95314.25;;;7.26;100.00
13604;BME280;24578;48.264;11.436;2022-11-04T06:48:31;95308.38;;;7.24;100.00
13604;BME280;24578;48.264;11.436;2022-11-04T06:51:31;95308.16;;;7.27;100.00
13604;BME280;24578;48.264;11.436;2022-11-04T06:54:32;95316.72;;;7.28;100.00
13604;BME280;24578;48.264;11.436;2022-11-04T06:57:32;95328.16;;;7.24;100.00
13604;BME280;24578;48.264;11.436;2022-11-04T07:00:32;95312.50;;;7.27;100.00
13604;BME280;24578;48.264;11.436;2022-11-04T07:03:32;95303.00;;;7.27;100.00
13604;BME280;24578;48.264;11.436;2022-11-04T07:06:33;95286.84;;;7.25;100.00
13604;BME280;24578;48.264;11.436;2022-11-04T07:09:33;95289.69;;;7.22;100.00
13604;BME280;24578;48.264;11.436;2022-11-04T07:12:34;95290.72;;;7.20;100.00
13604;BME280;24578;48.264;11.436;2022-11-04T07:15:34;95288.84;;;7.22;100.00
13604;BME280;24578;48.264;11.436;2022-11-04T07:18:36;95285.22;;;7.24;100.00
13604;BME280;24578;48.264;11.436;2022-11-04T07:21:36;95293.19;;;7.21;100.00
13604;BME280;24578;48.264;11.436;2022-11-04T07:24:37;95302.56;;;7.22;100.00
13604;BME280;24578;48.264;11.436;2022-11-04T07:27:37;95304.19;;;7.23;100.00
13604;BME280;24578;48.264;11.436;2022-11-04T07:30:38;95302.44;;;7.24;100.00
13604;BME280;24578;48.264;11.436;2022-11-04T07:33:38;95318.09;;;7.21;100.00
13604;BME280;24578;48.264;11.436;2022-11-04T07:36:38;95332.38;;;7.13;100.00
13604;BME280;24578;48.264;11.436;2022-11-04T07:39:39;95338.53;;;7.11;100.00
13604;BME280;24578;48.264;11.436;2022-11-04T07:42:39;95350.78;;;6.96;100.00
13604;BME280;24578;48.264;11.436;2022-11-04T07:45:39;95345.25;;;6.89;100.00
13604;BME280;24578;48.264;11.436;2022-11-04T07:48:40;95343.38;;;6.91;100.00
13604;BME280;24578;48.264;11.436;2022-11-04T07:51:40;95340.25;;;6.99;100.00
13604;BME280;24578;48.264;11.436;2022-11-04T07:54:40;95334.06;;;7.01;100.00
13604;BME280;24578;48.264;11.436;2022-11-04T07:57:40;95325.91;;;7.08;100.00
13604;BME280;24578;48.264;11.436;2022-11-04T08:00:41;95361.22;;;7.06;100.00
13604;BME280;24578;48.264;11.436;2022-11-04T08:03:41;95364.50;;;7.08;100.00
13604;BME280;24578;48.264;11.436;2022-11-04T08:06:41;95373.38;;;7.04;100.00
13604;BME280;24578;48.264;11.436;2022-11-04T08:09:41;95364.94;;;7.01;100.00
13604;BME280;24578;48.264;11.436;2022-11-04T08:12:42;95362.25;;;7.03;100.00
13604;BME280;24578;48.264;11.436;2022-11-04T08:15:42;95362.53;;;7.11;100.00
13604;BME280;24578;48.264;11.436;2022-11-04T08:18:42;95350.75;;;7.20;100.00
13604;BME280;24578;48.264;11.436;2022-11-04T08:21:42;95354.63;;;7.26;100.00
13604;BME280;24578;48.264;11.436;2022-11-04T08:24:43;95351.50;;;7.34;100.00
13604;BME280;24578;48.264;11.436;2022-11-04T08:27:46;95340.41;;;7.44;100.00
13604;BME280;24578;48.264;11.436;2022-11-04T08:30:57;95335.84;;;7.48;100.00
13604;BME280;24578;48.264;11.436;2022-11-04T08:33:58;95322.16;;;7.59;100.00
13604;BME280;24578;48.264;11.436;2022-11-04T08:36:58;95310.81;;;7.61;100.00
13604;BME280;24578;48.264;11.436;2022-11-04T08:39:59;95309.66;;;7.66;100.00
13604;BME280;24578;48.264;11.436;2022-11-04T08:42:59;95293.97;;;7.69;100.00
13604;BME280;24578;48.264;11.436;2022-11-04T08:46:00;95297.13;;;7.72;100.00
13604;BME280;24578;48.264;11.436;2022-11-04T08:49:00;95306.00;;;7.68;100.00
13604;BME280;24578;48.264;11.436;2022-11-04T08:52:00;95303.09;;;7.73;100.00
13604;BME280;24578;48.264;11.436;2022-11-04T08:55:01;95293.38;;;7.76;100.00
13604;BME280;24578;48.264;11.436;2022-11-04T08:58:01;95295.38;;;7.84;100.00
13604;BME280;24578;48.264;11.436;2022-11-04T09:01:02;95285.41;;;7.91;100.00
13604;BME280;24578;48.264;11.436;2022-11-04T09:04:03;95291.63;;;8.00;100.00
13604;BME280;24578;48.264;11.436;2022-11-04T09:07:04;95281.06;;;8.14;100.00
13604;BME280;24578;48.264;11.436;2022-11-04T09:10:05;95284.31;;;8.28;100.00
13604;BME280;24578;48.264;11.436;2022-11-04T09:13:06;95292.88;;;8.28;100.00
13604;BME280;24578;48.264;11.436;2022-11-04T09:16:10;95283.97;;;8.32;100.00
13604;BME280;24578;48.264;11.436;2022-11-04T09:19:10;95278.56;;;8.35;100.00
13604;BME280;24578;48.264;11.436;2022-11-04T09:22:11;95269.75;;;8.38;100.00
13604;BME280;24578;48.264;11.436;2022-11-04T09:25:11;95272.34;;;8.38;100.00
13604;BME280;24578;48.264;11.436;2022-11-04T09:28:11;95274.00;;;8.28;100.00
13604;BME280;24578;48.264;11.436;2022-11-04T09:31:16;95276.81;;;8.25;100.00
13604;BME280;24578;48.264;11.436;2022-11-04T09:34:17;95271.94;;;8.10;100.00
13604;BME280;24578;48.264;11.436;2022-11-04T09:37:17;95274.50;;;8.10;100.00
13604;BME280;24578;48.264;11.436;2022-11-04T09:40:18;95270.28;;;8.09;100.00
13604;BME280;24578;48.264;11.436;2022-11-04T09:46:20;95272.41;;;8.15;100.00
13604;BME280;24578;48.264;11.436;2022-11-04T09:49:21;95289.75;;;8.13;100.00
13604;BME280;24578;48.264;11.436;2022-11-04T09:52:24;95289.50;;;8.05;100.00
13604;BME280;24578;48.264;11.436;2022-11-04T09:55:28;95292.56;;;7.99;100.00
13604;BME280;24578;48.264;11.436;2022-11-04T09:58:32;95303.59;;;8.01;100.00
13604;BME280;24578;48.264;11.436;2022-11-04T10:01:49;95295.84;;;8.01;100.00
13604;BME280;24578;48.264;11.436;2022-11-04T10:08:21;95285.78;;;7.98;100.00
13604;BME280;24578;48.264;11.436;2022-11-04T10:21:05;95265.84;;;8.11;100.00
13604;BME280;24578;48.264;11.436;2022-11-04T10:27:15;95279.41;;;8.25;100.00
13604;BME280;24578;48.264;11.436;2022-11-04T10:33:28;95268.13;;;8.37;100.00
13604;BME280;24578;48.264;11.436;2022-11-04T10:36:30;95270.22;;;8.43;100.00
13604;BME280;24578;48.264;11.436;2022-11-04T10:39:31;95271.41;;;8.50;100.00
13604;BME280;24578;48.264;11.436;2022-11-04T10:42:34;95268.72;;;8.52;100.00
13604;BME280;24578;48.264;11.436;2022-11-04T10:48:55;95243.81;;;8.62;100.00
13604;BME280;24578;48.264;11.436;2022-11-04T10:51:59;95239.34;;;8.64;100.00
13604;BME280;24578;48.264;11.436;2022-11-04T10:55:00;95244.97;;;8.70;100.00
13604;BME280;24578;48.264;11.436;2022-11-04T10:58:00;95242.81;;;8.75;100.00
13604;BME280;24578;48.264;11.436;2022-11-04T11:01:21;95237.97;;;8.81;100.00
13604;BME280;24578;48.264;11.436;2022-11-04T11:04:31;95241.00;;;8.87;100.00
13604;BME280;24578;48.264;11.436;2022-11-04T11:07:35;95245.22;;;8.88;100.00
13604;BME280;24578;48.264;11.436;2022-11-04T11:10:35;95234.44;;;8.94;100.00
13604;BME280;24578;48.264;11.436;2022-11-04T11:13:37;95240.38;;;8.94;100.00
13604;BME280;24578;48.264;11.436;2022-11-04T11:16:38;95239.06;;;9.00;100.00
13604;BME280;24578;48.264;11.436;2022-11-04T11:22:46;95245.22;;;8.88;100.00
13604;BME280;24578;48.264;11.436;2022-11-04T11:25:49;95244.16;;;8.90;100.00
13604;BME280;24578;48.264;11.436;2022-11-04T11:28:54;95242.28;;;8.92;100.00
13604;BME280;24578;48.264;11.436;2022-11-04T11:32:01;95253.84;;;8.98;100.00
13604;BME280;24578;48.264;11.436;2022-11-04T11:35:01;95251.03;;;9.01;100.00
13604;BME280;24578;48.264;11.436;2022-11-04T11:38:02;95257.50;;;8.95;100.00
13604;BME280;24578;48.264;11.436;2022-11-04T11:41:06;95268.09;;;8.92;100.00
13604;BME280;24578;48.264;11.436;2022-11-04T11:44:17;95258.22;;;8.97;100.00
13604;BME280;24578;48.264;11.436;2022-11-04T11:47:20;95266.91;;;8.96;100.00
13604;BME280;24578;48.264;11.436;2022-11-04T11:53:23;95269.78;;;8.82;100.00
13604;BME280;24578;48.264;11.436;2022-11-04T11:56:29;95267.28;;;8.92;100.00
13604;BME280;24578;48.264;11.436;2022-11-04T11:59:41;95267.03;;;8.95;100.00
13604;BME280;24578;48.264;11.436;2022-11-04T12:05:51;95267.97;;;8.94;100.00
13604;BME280;24578;48.264;11.436;2022-11-04T12:12:06;95263.94;;;9.01;100.00
13604;BME280;24578;48.264;11.436;2022-11-04T12:21:55;95268.16;;;9.02;100.00
13604;BME280;24578;48.264;11.436;2022-11-04T12:31:09;95257.19;;;8.89;100.00
13604;BME280;24578;48.264;11.436;2022-11-04T12:34:28;95250.88;;;8.81;100.00
13604;BME280;24578;48.264;11.436;2022-11-04T12:47:33;95233.97;;;8.89;100.00
13604;BME280;24578;48.264;11.436;2022-11-04T12:50:53;95251.53;;;8.95;100.00
13604;BME280;24578;48.264;11.436;2022-11-04T12:54:01;95262.81;;;8.94;100.00
13604;BME280;24578;48.264;11.436;2022-11-04T13:00:09;95298.88;;;8.84;100.00
13604;BME280;24578;48.264;11.436;2022-11-04T13:03:31;95307.38;;;8.63;100.00
13604;BME280;24578;48.264;11.436;2022-11-04T13:06:37;95308.09;;;8.54;100.00
13604;BME280;24578;48.264;11.436;2022-11-04T13:09:41;95313.84;;;8.46;100.00
13604;BME280;24578;48.264;11.436;2022-11-04T13:12:43;95315.72;;;8.56;100.00
13604;BME280;24578;48.264;11.436;2022-11-04T13:15:53;95307.16;;;8.55;100.00
13604;BME280;24578;48.264;11.436;2022-11-04T13:18:54;95296.94;;;8.53;100.00
13604;BME280;24578;48.264;11.436;2022-11-04T13:21:56;95303.03;;;8.64;100.00
13604;BME280;24578;48.264;11.436;2022-11-04T13:28:03;95302.34;;;8.62;100.00
13604;BME280;24578;48.264;11.436;2022-11-04T13:31:10;95299.75;;;8.62;100.00
13604;BME280;24578;48.264;11.436;2022-11-04T13:34:24;95314.91;;;8.55;100.00
13604;BME280;24578;48.264;11.436;2022-11-04T13:37:43;95313.72;;;8.48;100.00
13604;BME280;24578;48.264;11.436;2022-11-04T13:40:54;95314.53;;;8.37;100.00
13604;BME280;24578;48.264;11.436;2022-11-04T13:44:02;95312.91;;;8.36;100.00
13604;BME280;24578;48.264;11.436;2022-11-04T13:47:05;95317.00;;;8.38;100.00
13604;BME280;24578;48.264;11.436;2022-11-04T13:50:31;95316.31;;;8.36;100.00
13604;BME280;24578;48.264;11.436;2022-11-04T13:53:38;95313.59;;;8.38;100.00
13604;BME280;24578;48.264;11.436;2022-11-04T13:56:39;95317.34;;;8.34;100.00
13604;BME280;24578;48.264;11.436;2022-11-04T13:59:41;95320.78;;;8.23;100.00
13604;BME280;24578;48.264;11.436;2022-11-04T14:05:44;95319.25;;;8.09;100.00
13604;BME280;24578;48.264;11.436;2022-11-04T14:09:22;95317.13;;;8.03;100.00
13604;BME280;24578;48.264;11.436;2022-11-04T14:15:24;95316.91;;;7.95;100.00
13604;BME280;24578;48.264;11.436;2022-11-04T14:18:37;95314.81;;;8.00;100.00
13604;BME280;24578;48.264;11.436;2022-11-04T14:22:03;95319.72;;;8.03;100.00
13604;BME280;24578;48.264;11.436;2022-11-04T14:25:21;95317.72;;;7.95;100.00
13604;BME280;24578;48.264;11.436;2022-11-04T14:28:25;95315.06;;;7.97;100.00
13604;BME280;24578;48.264;11.436;2022-11-04T14:31:37;95323.13;;;8.03;100.00
13604;BME280;24578;48.264;11.436;2022-11-04T14:34:38;95322.06;;;7.95;100.00
13604;BME280;24578;48.264;11.436;2022-11-04T14:37:41;95320.44;;;7.93;100.00
13604;BME280;24578;48.264;11.436;2022-11-04T14:41:11;95319.63;;;7.93;100.00
13604;BME280;24578;48.264;11.436;2022-11-04T14:47:16;95315.28;;;7.93;100.00
13604;BME280;24578;48.264;11.436;2022-11-04T14:50:19;95323.34;;;8.00;100.00
13604;BME280;24578;48.264;11.436;2022-11-04T14:53:29;95314.47;;;7.93;100.00
13604;BME280;24578;48.264;11.436;2022-11-04T14:56:30;95317.72;;;7.95;100.00
13604;BME280;24578;48.264;11.436;2022-11-04T14:59:30;95322.06;;;7.95;100.00
13604;BME280;24578;48.264;11.436;2022-11-04T15:02:31;95315.50;;;7.90;100.00
13604;BME280;24578;48.264;11.436;2022-11-04T15:05:34;95321.47;;;7.80;100.00
13604;BME280;24578;48.264;11.436;2022-11-04T15:11:39;95320.41;;;7.71;100.00
13604;BME280;24578;48.264;11.436;2022-11-04T15:14:58;95333.53;;;7.68;100.00
13604;BME280;24578;48.264;11.436;2022-11-04T15:21:03;95336.91;;;7.45;100.00
13604;BME280;24578;48.264;11.436;2022-11-04T15:24:03;95345.44;;;7.46;100.00
13604;BME280;24578;48.264;11.436;2022-11-04T15:27:04;95337.22;;;7.41;100.00
13604;BME280;24578;48.264;11.436;2022-11-04T15:30:15;95338.16;;;7.40;100.00
13604;BME280;24578;48.264;11.436;2022-11-04T15:33:17;95337.56;;;7.36;100.00
13604;BME280;24578;48.264;11.436;2022-11-04T15:39:22;95347.63;;;7.28;100.00
13604;BME280;24578;48.264;11.436;2022-11-04T15:42:25;95351.56;;;7.21;100.00
13604;BME280;24578;48.264;11.436;2022-11-04T15:48:36;95355.63;;;7.12;100.00
13604;BME280;24578;48.264;11.436;2022-11-04T15:51:38;95356.78;;;7.08;100.00
13604;BME280;24578;48.264;11.436;2022-11-04T15:54:42;95359.19;;;6.98;100.00
13604;BME280;24578;48.264;11.436;2022-11-04T15:57:43;95366.75;;;6.88;100.00
13604;BME280;24578;48.264;11.436;2022-11-04T16:00:51;95364.41;;;6.85;100.00
13604;BME280;24578;48.264;11.436;2022-11-04T16:03:55;95364.50;;;6.83;100.00
13604;BME280;24578;48.264;11.436;2022-11-04T16:07:19;95354.09;;;6.85;100.00
13604;BME280;24578;48.264;11.436;2022-11-04T16:13:30;95360.31;;;6.82;100.00
13604;BME280;24578;48.264;11.436;2022-11-04T16:16:30;95368.44;;;6.76;100.00
13604;BME280;24578;48.264;11.436;2022-11-04T16:19:30;95368.19;;;6.68;100.00
13604;BME280;24578;48.264;11.436;2022-11-04T16:22:34;95367.06;;;6.59;100.00
13604;BME280;24578;48.264;11.436;2022-11-04T16:25:39;95364.31;;;6.49;100.00
13604;BME280;24578;48.264;11.436;2022-11-04T16:28:40;95363.22;;;6.40;100.00
13604;BME280;24578;48.264;11.436;2022-11-04T16:31:40;95368.88;;;6.33;100.00
13604;BME280;24578;48.264;11.436;2022-11-04T16:34:41;95366.13;;;6.23;100.00
13604;BME280;24578;48.264;11.436;2022-11-04T16:37:41;95367.69;;;6.13;100.00
13604;BME280;24578;48.264;11.436;2022-11-04T16:40:42;95366.44;;;6.05;100.00
13604;BME280;24578;48.264;11.436;2022-11-04T16:43:44;95365.94;;;6.00;100.00
13604;BME280;24578;48.264;11.436;2022-11-04T16:46:45;95372.38;;;5.93;100.00
13604;BME280;24578;48.264;11.436;2022-11-04T16:49:46;95374.75;;;5.83;100.00
13604;BME280;24578;48.264;11.436;2022-11-04T16:52:46;95389.03;;;5.74;100.00
13604;BME280;24578;48.264;11.436;2022-11-04T16:55:46;95396.44;;;5.66;100.00
13604;BME280;24578;48.264;11.436;2022-11-04T16:58:47;95398.56;;;5.59;100.00
13604;BME280;24578;48.264;11.436;2022-11-04T17:01:47;95404.72;;;5.57;100.00
13604;BME280;24578;48.264;11.436;2022-11-04T17:04:47;95400.72;;;5.53;100.00
13604;BME280;24578;48.264;11.436;2022-11-04T17:07:48;95403.38;;;5.51;100.00
13604;BME280;24578;48.264;11.436;2022-11-04T17:10:48;95403.56;;;5.48;100.00
13604;BME280;24578;48.264;11.436;2022-11-04T17:13:48;95413.03;;;5.47;100.00
13604;BME280;24578;48.264;11.436;2022-11-04T17:16:48;95410.47;;;5.47;100.00
13604;BME280;24578;48.264;11.436;2022-11-04T17:19:49;95411.38;;;5.46;100.00
13604;BME280;24578;48.264;11.436;2022-11-04T17:22:49;95412.09;;;5.48;100.00
13604;BME280;24578;48.264;11.436;2022-11-04T17:25:49;95417.13;;;5.50;100.00
13604;BME280;24578;48.264;11.436;2022-11-04T17:28:50;95429.03;;;5.51;100.00
13604;BME280;24578;48.264;11.436;2022-11-04T17:31:50;95431.41;;;5.54;100.00
13604;BME280;24578;48.264;11.436;2022-11-04T17:34:54;95441.69;;;5.54;100.00
13604;BME280;24578;48.264;11.436;2022-11-04T17:37:55;95435.81;;;5.52;100.00
13604;BME280;24578;48.264;11.436;2022-11-04T17:40:55;95446.09;;;5.52;100.00
13604;BME280;24578;48.264;11.436;2022-11-04T17:44:14;95450.41;;;5.52;100.00
13604;BME280;24578;48.264;11.436;2022-11-04T17:47:14;95450.41;;;5.52;100.00
13604;BME280;24578;48.264;11.436;2022-11-04T17:50:14;95450.63;;;5.48;100.00
13604;BME280;24578;48.264;11.436;2022-11-04T17:53:14;95452.44;;;5.46;100.00
13604;BME280;24578;48.264;11.436;2022-11-04T17:56:15;95452.44;;;5.46;100.00